createdAt,value
2023-02-21T00:00:09.088Z,71.97
2023-02-21T00:02:59.025Z,72.05
2023-02-21T00:08:30.249Z,72.25
2023-02-21T00:11:16.644Z,72.25
2023-02-21T00:14:02.970Z,72.41
2023-02-21T00:16:49.476Z,72.46
2023-02-21T00:19:38.297Z,72.56
2023-02-21T00:25:10.131Z,72.90
2023-02-21T00:27:56.225Z,73.02
2023-02-21T00:30:42.656Z,73.03
2023-02-21T00:33:28.908Z,73.36
2023-02-21T00:36:14.963Z,73.39
2023-02-21T00:39:01.300Z,73.42
2023-02-21T00:44:32.127Z,73.50
2023-02-21T00:47:18.313Z,73.56
2023-02-21T00:50:04.877Z,73.52
2023-02-21T00:52:57.149Z,73.54
2023-02-21T00:55:43.703Z,73.70
2023-02-21T01:01:14.761Z,74.01
2023-02-21T01:04:01.184Z,74.23
2023-02-21T01:06:47.954Z,74.25
2023-02-21T01:12:03.876Z,74.48
2023-02-21T01:14:51.782Z,74.78
2023-02-21T01:17:38.078Z,74.72
2023-02-21T01:22:53.309Z,74.82
2023-02-21T01:25:40.208Z,74.83
2023-02-21T01:28:26.897Z,74.82
2023-02-21T01:31:13.731Z,74.92
2023-02-21T01:34:00.481Z,74.95
2023-02-21T01:39:32.046Z,75.06
2023-02-21T01:42:19.247Z,75.13
2023-02-21T01:45:07.110Z,75.11
2023-02-21T01:50:24.827Z,75.14
2023-02-21T01:53:11.133Z,75.09
2023-02-21T01:58:27.570Z,75.23
2023-02-21T02:01:14.523Z,75.23
2023-02-21T02:04:01.360Z,75.26
2023-02-21T02:06:49.221Z,75.28
2023-02-21T02:15:16.309Z,75.48
2023-02-21T02:18:20.335Z,75.55
2023-02-21T02:21:19.656Z,75.54
2023-02-21T02:27:46.629Z,75.85
2023-02-21T02:30:34.857Z,75.94
2023-02-21T02:36:14.442Z,76.11
2023-02-21T02:41:47.621Z,76.23
2023-02-21T02:44:45.440Z,76.30
2023-02-21T02:47:25.204Z,76.37
2023-02-21T02:49:55.283Z,76.52
2023-02-21T02:52:23.126Z,76.56
2023-02-21T02:55:05.182Z,76.59
2023-02-21T02:57:39.047Z,76.64
2023-02-21T03:02:53.793Z,76.79
2023-02-21T03:05:48.339Z,76.91
2023-02-21T03:08:42.668Z,76.86
2023-02-21T03:11:20.663Z,76.88
2023-02-21T03:14:01.738Z,76.97
2023-02-21T03:16:49.636Z,77.00
2023-02-21T03:19:22.979Z,77.01
2023-02-21T03:22:16.782Z,77.05
2023-02-21T03:24:48.426Z,77.10
2023-02-21T03:27:18.246Z,77.13
2023-02-21T03:32:23.581Z,77.14
2023-02-21T03:34:51.907Z,77.14
2023-02-21T03:37:37.318Z,77.16
2023-02-21T03:42:37.573Z,77.19
2023-02-21T03:47:33.100Z,77.29
2023-02-21T03:50:01.154Z,77.32
2023-02-21T03:52:28.981Z,77.38
2023-02-21T03:54:56.977Z,77.43
2023-02-21T03:57:25.746Z,77.45
2023-02-21T03:59:53.551Z,77.44
2023-02-21T04:02:21.598Z,77.47
2023-02-21T04:04:49.744Z,77.57
2023-02-21T04:07:21.395Z,77.54
2023-02-21T04:09:49.893Z,77.51
2023-02-21T04:12:18.915Z,77.53
2023-02-21T04:14:46.713Z,77.66
2023-02-21T04:17:15.726Z,77.62
2023-02-21T04:19:44.256Z,77.75
2023-02-21T04:22:11.259Z,77.67
2023-02-21T04:24:39.036Z,77.64
2023-02-21T04:27:07.111Z,77.73
2023-02-21T04:29:36.818Z,77.80
2023-02-21T04:32:04.830Z,77.80
2023-02-21T04:34:33.613Z,77.87
2023-02-21T04:37:01.606Z,77.94
2023-02-21T04:39:29.815Z,77.91
2023-02-21T04:41:57.642Z,78.01
2023-02-21T04:44:25.327Z,78.04
2023-02-21T04:46:53.203Z,78.11
2023-02-21T04:49:21.052Z,78.15
2023-02-21T04:54:14.980Z,78.43
2023-02-21T04:59:09.154Z,78.71
2023-02-21T05:01:37.041Z,78.75
2023-02-21T05:04:05.163Z,78.90
2023-02-21T05:06:33.181Z,79.01
2023-02-21T05:09:01.021Z,78.94
2023-02-21T05:14:00.690Z,78.94
2023-02-21T05:16:28.775Z,78.96
2023-02-21T05:18:56.218Z,78.97
2023-02-21T05:21:24.181Z,78.85
2023-02-21T05:23:57.488Z,78.71
2023-02-21T05:26:30.052Z,78.69
2023-02-21T05:28:58.075Z,78.60
2023-02-21T05:31:25.836Z,78.63
2023-02-21T05:33:54.565Z,78.63
2023-02-21T05:38:52.526Z,78.62
2023-02-21T05:41:20.826Z,78.80
2023-02-21T05:43:50.142Z,78.88
2023-02-21T05:46:32.148Z,78.97
2023-02-21T05:49:02.597Z,79.00
2023-02-21T05:54:11.160Z,79.33
2023-02-21T05:59:05.590Z,79.59
2023-02-21T06:01:34.033Z,79.73
2023-02-21T06:04:02.015Z,79.75
2023-02-21T06:06:29.964Z,79.80
2023-02-21T06:08:58.038Z,79.81
2023-02-21T06:11:31.355Z,79.88
2023-02-21T06:14:03.087Z,79.96
2023-02-21T06:16:36.744Z,79.94
2023-02-21T06:19:07.075Z,79.97
2023-02-21T06:21:38.083Z,80.06
2023-02-21T06:24:06.599Z,80.03
2023-02-21T06:26:34.510Z,80.12
2023-02-21T06:29:03.028Z,80.09
2023-02-21T06:31:31.139Z,80.08
2023-02-21T06:33:59.757Z,80.09
2023-02-21T06:36:28.784Z,80.11
2023-02-21T06:38:58.746Z,80.08
2023-02-21T06:41:29.991Z,80.18
2023-02-21T06:43:59.252Z,80.34
2023-02-21T06:46:29.752Z,80.27
2023-02-21T06:48:58.329Z,80.18
2023-02-21T06:51:28.015Z,80.10
2023-02-21T06:53:57.893Z,79.96
2023-02-21T06:56:26.627Z,80.04
2023-02-21T06:58:54.554Z,80.50
2023-02-21T07:01:23.403Z,81.64
2023-02-21T07:03:52.317Z,81.76
2023-02-21T07:06:20.830Z,80.98
2023-02-21T07:08:49.090Z,80.46
2023-02-21T07:11:18.814Z,79.41
2023-02-21T07:13:56.241Z,77.97
2023-02-21T07:16:24.243Z,78.72
2023-02-21T07:18:52.656Z,77.79
2023-02-21T07:21:21.446Z,76.49
2023-02-21T07:23:49.493Z,73.84
2023-02-21T07:26:17.295Z,72.40
2023-02-21T07:28:49.463Z,70.53
2023-02-21T07:31:19.501Z,68.09
2023-02-21T07:33:47.144Z,68.10
2023-02-21T07:36:15.707Z,67.10
2023-02-21T07:38:43.328Z,66.13
2023-02-21T07:41:11.162Z,65.53
2023-02-21T07:43:38.831Z,65.62
2023-02-21T07:46:12.573Z,65.94
2023-02-21T07:48:41.013Z,66.09
2023-02-21T07:51:10.391Z,66.12
2023-02-21T07:53:37.860Z,66.69
2023-02-21T07:56:06.575Z,66.53
2023-02-21T07:58:36.135Z,66.69
2023-02-21T08:01:05.830Z,67.07
2023-02-21T08:03:33.865Z,67.68
2023-02-21T08:06:05.909Z,68.16
2023-02-21T08:08:33.853Z,68.52
2023-02-21T08:11:03.057Z,68.86
2023-02-21T08:13:30.733Z,69.20
2023-02-21T08:15:58.865Z,69.51
2023-02-21T08:18:28.394Z,69.57
2023-02-21T08:20:57.058Z,69.67
2023-02-21T08:23:25.592Z,69.70
2023-02-21T08:25:55.616Z,69.25
2023-02-21T08:28:23.752Z,69.45
2023-02-21T08:30:53.384Z,69.29
2023-02-21T08:33:21.768Z,69.07
2023-02-21T08:35:55.971Z,68.88
2023-02-21T08:38:23.749Z,68.98
2023-02-21T08:40:52.611Z,68.72
2023-02-21T08:43:22.619Z,68.51
2023-02-21T08:45:50.830Z,68.26
2023-02-21T08:48:18.572Z,68.24
2023-02-21T08:50:50.481Z,67.81
2023-02-21T08:53:21.022Z,67.82
2023-02-21T08:55:49.832Z,67.87
2023-02-21T08:58:17.331Z,67.63
2023-02-21T09:00:45.678Z,67.40
2023-02-21T09:03:13.777Z,67.72
2023-02-21T09:05:41.949Z,67.70
2023-02-21T09:08:10.193Z,67.50
2023-02-21T09:10:40.275Z,67.45
2023-02-21T09:13:09.521Z,67.60
2023-02-21T09:15:37.361Z,67.47
2023-02-21T09:18:06.222Z,67.42
2023-02-21T09:20:34.324Z,67.23
2023-02-21T09:23:02.459Z,66.41
2023-02-21T09:25:33.595Z,66.60
2023-02-21T09:28:07.461Z,66.43
2023-02-21T09:30:35.101Z,66.18
2023-02-21T09:33:04.245Z,65.84
2023-02-21T09:35:34.708Z,65.38
2023-02-21T09:38:03.512Z,65.18
2023-02-21T09:40:55.371Z,64.98
2023-02-21T09:43:46.891Z,64.27
2023-02-21T09:46:20.276Z,64.48
2023-02-21T09:48:49.448Z,62.38
2023-02-21T09:51:17.719Z,61.97
2023-02-21T09:53:49.097Z,62.36
2023-02-21T09:56:36.703Z,61.85
2023-02-21T09:59:11.327Z,61.12
2023-02-21T10:02:15.646Z,61.31
2023-02-21T10:05:03.728Z,60.85
2023-02-21T10:08:03.219Z,61.10
2023-02-21T10:10:36.714Z,60.39
2023-02-21T10:13:29.210Z,59.82
2023-02-21T10:16:14.450Z,60.22
2023-02-21T10:19:02.898Z,60.10
2023-02-21T10:21:38.579Z,60.59
2023-02-21T10:24:16.692Z,61.46
2023-02-21T10:26:56.214Z,61.25
2023-02-21T10:29:29.034Z,61.49
2023-02-21T10:32:02.889Z,62.10
2023-02-21T10:34:33.254Z,62.04
2023-02-21T10:37:15.268Z,62.16
2023-02-21T10:39:48.344Z,62.14
2023-02-21T10:42:27.616Z,62.29
2023-02-21T10:44:56.484Z,61.90
2023-02-21T10:47:49.422Z,62.28
2023-02-21T10:50:28.967Z,62.45
2023-02-21T10:52:57.324Z,62.10
2023-02-21T10:57:56.875Z,61.69
2023-02-21T11:00:41.620Z,62.20
2023-02-21T11:03:22.573Z,62.36
2023-02-21T11:05:53.390Z,61.96
2023-02-21T11:08:42.044Z,62.59
2023-02-21T11:13:36.132Z,61.87
2023-02-21T11:16:19.483Z,61.51
2023-02-21T11:19:06.682Z,61.97
2023-02-21T11:24:04.394Z,61.89
2023-02-21T11:31:38.544Z,61.08
2023-02-21T11:36:41.658Z,60.14
2023-02-21T11:42:06.459Z,60.21
2023-02-21T11:44:38.898Z,59.70
2023-02-21T11:47:23.177Z,59.96
2023-02-21T11:50:10.917Z,59.92
2023-02-21T11:53:10.167Z,59.51
2023-02-21T11:55:39.764Z,59.69
2023-02-21T12:04:15.646Z,59.32
2023-02-21T12:06:54.718Z,59.08
2023-02-21T12:09:37.185Z,60.09
2023-02-21T12:15:27.514Z,60.03
2023-02-21T12:18:27.839Z,60.07
2023-02-21T12:21:18.991Z,60.24
2023-02-21T12:24:30.764Z,60.32
2023-02-21T12:27:19.056Z,60.66
2023-02-21T12:30:03.434Z,61.23
2023-02-21T12:33:09.753Z,60.93
2023-02-21T12:38:51.465Z,61.37
2023-02-21T12:41:57.016Z,61.70
2023-02-21T12:44:50.194Z,61.98
2023-02-21T12:50:08.951Z,62.35
2023-02-21T12:52:51.529Z,62.47
2023-02-21T12:55:25.932Z,62.58
2023-02-21T12:57:52.595Z,62.76
2023-02-21T13:00:25.042Z,62.75
2023-02-21T13:05:47.333Z,62.87
2023-02-21T13:08:23.516Z,62.95
2023-02-21T13:11:02.990Z,63.06
2023-02-21T13:13:33.889Z,63.59
2023-02-21T13:16:10.453Z,63.35
2023-02-21T13:18:49.027Z,63.78
2023-02-21T13:24:32.837Z,63.96
2023-02-21T13:30:23.867Z,63.40
2023-02-21T13:32:56.182Z,63.56
2023-02-21T13:35:40.269Z,63.35
2023-02-21T13:38:10.688Z,62.88
2023-02-21T13:40:55.070Z,63.48
2023-02-21T13:45:52.636Z,63.55
2023-02-21T13:50:52.908Z,63.26
2023-02-21T13:53:30.646Z,63.10
2023-02-21T13:58:38.286Z,62.64
2023-02-21T14:01:32.895Z,62.29
2023-02-21T14:04:02.341Z,61.29
2023-02-21T14:06:36.382Z,61.54
2023-02-21T14:11:38.927Z,61.48
2023-02-21T14:14:20.165Z,61.78
2023-02-21T14:17:05.469Z,62.06
2023-02-21T14:22:20.310Z,61.75
2023-02-21T14:24:53.348Z,62.00
2023-02-21T14:27:29.407Z,62.29
2023-02-21T14:30:14.345Z,62.33
2023-02-21T14:32:46.395Z,62.33
2023-02-21T14:35:22.721Z,62.70
2023-02-21T14:38:04.464Z,62.89
2023-02-21T14:43:47.782Z,63.28
2023-02-21T14:46:50.093Z,63.50
2023-02-21T14:49:29.392Z,63.70
2023-02-21T14:54:28.374Z,64.02
2023-02-21T14:56:55.526Z,64.14
2023-02-21T14:59:54.784Z,64.22
2023-02-21T15:05:23.279Z,64.59
2023-02-21T15:08:16.061Z,64.79
2023-02-21T15:10:48.904Z,64.98
2023-02-21T15:16:11.631Z,65.29
2023-02-21T15:18:43.569Z,65.35
2023-02-21T15:21:20.060Z,65.51
2023-02-21T15:26:31.559Z,65.75
2023-02-21T15:31:28.017Z,66.04
2023-02-21T15:36:23.775Z,66.24
2023-02-21T15:41:35.163Z,66.41
2023-02-21T15:44:20.247Z,66.46
2023-02-21T15:46:52.777Z,66.57
2023-02-21T15:49:28.779Z,66.63
2023-02-21T15:54:37.331Z,66.85
2023-02-21T15:57:13.062Z,66.95
2023-02-21T16:04:53.635Z,67.27
2023-02-21T16:09:58.003Z,67.50
2023-02-21T16:12:35.428Z,67.58
2023-02-21T16:17:35.819Z,67.72
2023-02-21T16:20:19.724Z,67.85
2023-02-21T16:23:12.003Z,67.93
2023-02-21T16:28:49.736Z,68.13
2023-02-21T16:31:29.904Z,68.24
2023-02-21T16:36:32.504Z,68.58
2023-02-21T16:39:02.050Z,68.74
2023-02-21T16:41:29.345Z,69.08
2023-02-21T16:43:57.137Z,69.12
2023-02-21T16:46:30.193Z,69.25
2023-02-21T16:48:59.293Z,69.35
2023-02-21T16:51:28.971Z,69.48
2023-02-21T16:53:57.682Z,69.56
2023-02-21T16:56:27.382Z,69.67
2023-02-21T16:58:57.141Z,69.77
2023-02-21T17:03:55.953Z,70.03
2023-02-21T17:06:30.463Z,70.25
2023-02-21T17:08:59.140Z,70.41
2023-02-21T17:11:36.840Z,70.49
2023-02-21T17:14:06.363Z,70.53
2023-02-21T17:16:34.113Z,70.65
2023-02-21T17:19:02.107Z,70.77
2023-02-21T17:21:31.954Z,71.04
2023-02-21T17:23:59.882Z,71.08
2023-02-21T17:26:27.557Z,71.44
2023-02-21T17:28:55.348Z,71.51
2023-02-21T17:31:23.340Z,71.58
2023-02-21T17:33:51.481Z,71.71
2023-02-21T17:36:23.023Z,71.83
2023-02-21T17:38:50.992Z,71.90
2023-02-21T17:41:19.713Z,72.07
2023-02-21T17:43:48.199Z,72.10
2023-02-21T17:46:18.266Z,72.33
2023-02-21T17:48:47.158Z,72.39
2023-02-21T17:51:24.001Z,72.71
2023-02-21T17:53:52.027Z,72.66
2023-02-21T17:56:23.923Z,73.16
2023-02-21T17:58:51.810Z,73.06
2023-02-21T18:01:20.941Z,73.43
2023-02-21T18:03:48.899Z,73.40
2023-02-21T18:06:17.760Z,73.52
2023-02-21T18:08:46.699Z,73.56
2023-02-21T18:11:17.962Z,73.63
2023-02-21T18:13:46.112Z,73.69
2023-02-21T18:16:15.096Z,73.82
2023-02-21T18:18:43.177Z,74.07
2023-02-21T18:21:12.260Z,74.24
2023-02-21T18:23:46.343Z,74.21
2023-02-21T18:26:14.360Z,74.30
2023-02-21T18:28:43.404Z,74.55
2023-02-21T18:31:18.412Z,74.87
2023-02-21T18:33:47.525Z,75.15
2023-02-21T18:36:15.402Z,75.31
2023-02-21T18:38:43.558Z,75.53
2023-02-21T18:41:14.507Z,75.63
2023-02-21T18:43:44.005Z,75.78
2023-02-21T18:46:14.932Z,75.94
2023-02-21T18:48:49.127Z,76.06
2023-02-21T18:51:19.300Z,76.06
2023-02-21T18:53:48.805Z,76.11
2023-02-21T18:56:19.556Z,76.33
2023-02-21T18:58:49.135Z,76.41
2023-02-21T19:01:20.205Z,76.41
2023-02-21T19:03:52.329Z,76.39
2023-02-21T19:06:21.989Z,76.45
2023-02-21T19:08:50.277Z,76.60
2023-02-21T19:11:18.622Z,76.74
2023-02-21T19:13:48.294Z,76.83
2023-02-21T19:16:19.077Z,76.96
2023-02-21T19:18:46.998Z,77.20
2023-02-21T19:21:15.252Z,77.62
2023-02-21T19:23:46.672Z,77.68
2023-02-21T19:26:15.550Z,77.92
2023-02-21T19:28:43.206Z,77.91
2023-02-21T19:31:13.958Z,78.03
2023-02-21T19:33:43.010Z,78.20
2023-02-21T19:36:14.411Z,78.33
2023-02-21T19:38:42.298Z,78.53
2023-02-21T19:41:10.240Z,78.77
2023-02-21T19:43:38.119Z,78.75
2023-02-21T19:46:06.001Z,78.85
2023-02-21T19:48:34.739Z,78.97
2023-02-21T19:51:02.886Z,79.03
2023-02-21T19:53:33.336Z,79.07
2023-02-21T19:56:02.530Z,79.13
2023-02-21T19:58:32.683Z,79.40
2023-02-21T20:01:00.894Z,79.63
2023-02-21T20:03:29.448Z,79.87
2023-02-21T20:05:58.271Z,80.36
2023-02-21T20:08:26.335Z,80.41
2023-02-21T20:10:54.175Z,81.24
2023-02-21T20:13:22.163Z,81.55
2023-02-21T20:15:50.850Z,82.22
2023-02-21T20:18:20.132Z,82.62
2023-02-21T20:20:49.939Z,82.96
2023-02-21T20:23:20.117Z,82.86
2023-02-21T20:25:51.449Z,82.93
2023-02-21T20:28:19.640Z,82.82
2023-02-21T20:30:50.931Z,82.56
2023-02-21T20:33:24.650Z,82.48
2023-02-21T20:35:52.795Z,82.23
2023-02-21T20:38:20.977Z,82.12
2023-02-21T20:43:16.166Z,81.95
2023-02-21T20:45:44.758Z,81.80
2023-02-21T20:48:20.577Z,81.64
2023-02-21T20:51:01.260Z,81.51
2023-02-21T20:53:36.065Z,81.45
2023-02-21T20:56:04.494Z,81.37
2023-02-21T20:58:32.686Z,81.30
2023-02-21T21:01:01.131Z,81.29
2023-02-21T21:03:29.081Z,81.24
2023-02-21T21:05:57.117Z,81.29
2023-02-21T21:08:26.307Z,81.47
2023-02-21T21:10:54.539Z,81.63
2023-02-21T21:13:22.369Z,81.60
2023-02-21T21:15:52.405Z,81.59
2023-02-21T21:18:20.471Z,81.57
2023-02-21T21:20:48.962Z,81.65
2023-02-21T21:23:16.718Z,81.75
2023-02-21T21:25:44.844Z,81.59
2023-02-21T21:28:12.702Z,81.55
2023-02-21T21:30:42.197Z,81.39
2023-02-21T21:33:10.805Z,81.27
2023-02-21T21:35:38.672Z,81.17
2023-02-21T21:38:07.037Z,81.05
2023-02-21T21:40:35.185Z,80.96
2023-02-21T21:43:04.762Z,80.90
2023-02-21T21:45:34.507Z,80.87
2023-02-21T21:48:02.253Z,80.90
2023-02-21T21:50:29.768Z,80.83
2023-02-21T21:52:57.960Z,80.80
2023-02-21T21:55:29.653Z,80.75
2023-02-21T21:57:58.394Z,80.68
2023-02-21T22:00:30.517Z,80.89
2023-02-21T22:03:01.335Z,81.16
2023-02-21T22:05:31.478Z,81.41
2023-02-21T22:07:59.783Z,81.52
2023-02-21T22:10:29.220Z,81.61
2023-02-21T22:12:58.780Z,81.75
2023-02-21T22:17:58.452Z,81.86
2023-02-21T22:22:54.358Z,81.83
2023-02-21T22:27:48.293Z,81.69
2023-02-21T22:32:48.301Z,81.45
2023-02-21T22:37:45.518Z,81.44
2023-02-21T22:42:39.875Z,81.70
2023-02-21T22:45:10.520Z,81.75
2023-02-21T22:47:39.075Z,81.91
2023-02-21T22:50:08.126Z,82.12
2023-02-21T22:52:36.286Z,82.25
2023-02-21T22:55:05.055Z,82.41
2023-02-21T22:57:34.562Z,82.15
2023-02-21T23:02:30.836Z,81.82
2023-02-21T23:04:58.893Z,81.58
2023-02-21T23:07:26.882Z,81.48
2023-02-21T23:09:54.513Z,81.39
2023-02-21T23:12:22.684Z,81.29
2023-02-21T23:14:50.994Z,81.14
2023-02-21T23:17:18.795Z,81.02
2023-02-21T23:19:46.910Z,81.00
2023-02-21T23:22:15.352Z,80.87
2023-02-21T23:24:44.038Z,80.83
2023-02-21T23:27:12.109Z,80.73
2023-02-21T23:29:40.032Z,80.64
2023-02-21T23:32:10.679Z,80.54
2023-02-21T23:34:41.559Z,80.38
2023-02-21T23:37:11.719Z,80.34
2023-02-21T23:39:40.443Z,80.18
2023-02-21T23:42:10.013Z,80.08
2023-02-21T23:44:37.822Z,79.98
2023-02-21T23:47:05.544Z,79.86
2023-02-21T23:49:33.536Z,79.85
2023-02-21T23:52:01.288Z,79.88
2023-02-21T23:54:29.246Z,79.83
2023-02-21T23:56:58.928Z,79.90
2023-02-21T23:59:27.173Z,79.93
